Time;durP1;ratioP1;P1;durP2;ratioP2;P2;SDS_P1;SDS_P2;PMS_P1;PMS_P2;Temp;Humidity;BMP_temperature;BMP_pressure;BME280_temperature;BME280_humidity;BME280_pressure;Samples;Min_cycle;Max_cycle;Signal;HPM_P1;HPM_P2
2022/05/29 00:00:52;;;;;;;7.40;2.67;;;;;;;;;;4954214;28;20550;-76
2022/05/29 00:03:18;;;;;;;4.40;3.20;;;;;;;;;;4973554;28;20430;-77
2022/05/29 00:05:46;;;;;;;3.83;3.17;;;;;;;;;;4974138;28;20983;-76
2022/05/29 00:08:14;;;;;;;4.87;3.20;;;;;;;;;;4973533;28;20493;-77
2022/05/29 00:10:42;;;;;;;4.17;3.43;;;;;;;;;;4954581;28;20442;-79
2022/05/29 00:13:11;;;;;;;4.13;3.73;;;;;;;;;;4971613;28;20491;-78
2022/05/29 00:15:38;;;;;;;4.00;3.60;;;;;;;;;;4965600;28;20431;-78
2022/05/29 00:18:06;;;;;;;3.73;3.33;;;;;;;;;;4949956;28;21068;-78
2022/05/29 00:20:33;;;;;;;6.07;4.00;;;;;;;;;;4972715;28;20446;-78
2022/05/29 00:23:00;;;;;;;3.93;3.53;;;;;;;;;;4972836;28;20435;-77
2022/05/29 00:25:33;;;;;;;3.63;3.30;;;;;;;;;;4972472;28;20430;-78
2022/05/29 00:28:00;;;;;;;3.83;3.53;;;;;;;;;;4973634;28;20415;-78
2022/05/29 00:30:26;;;;;;;5.43;3.70;;;;;;;;;;4971686;28;20446;-79
2022/05/29 00:32:53;;;;;;;4.33;4.03;;;;;;;;;;4973388;28;20549;-78
2022/05/29 00:35:21;;;;;;;4.90;3.80;;;;;;;;;;4960285;28;20453;-78
2022/05/29 00:37:48;;;;;;;3.67;3.37;;;;;;;;;;4937823;29;20468;-77
2022/05/29 00:40:20;;;;;;;4.07;3.67;;;;;;;;;;4968185;28;20446;-77
2022/05/29 00:42:47;;;;;;;4.60;3.47;;;;;;;;;;4941579;28;20892;-77
2022/05/29 00:45:17;;;;;;;4.63;4.13;;;;;;;;;;4972729;28;20469;-78
2022/05/29 00:47:44;;;;;;;5.70;4.33;;;;;;;;;;4972793;28;20447;-77
2022/05/29 00:50:11;;;;;;;3.40;3.10;;;;;;;;;;4954551;28;20548;-77
2022/05/29 00:52:39;;;;;;;3.40;3.10;;;;;;;;;;4955446;28;20454;-78
2022/05/29 00:55:11;;;;;;;3.80;3.17;;;;;;;;;;4971609;28;20482;-78
2022/05/29 00:57:40;;;;;;;3.30;3.00;;;;;;;;;;4956207;28;20475;-78
2022/05/29 01:00:08;;;;;;;5.63;3.73;;;;;;;;;;4972514;28;20450;-78
2022/05/29 01:02:35;;;;;;;3.70;3.40;;;;;;;;;;4955391;28;20459;-78
2022/05/29 01:05:03;;;;;;;5.53;3.63;;;;;;;;;;4955747;29;21004;-77
2022/05/29 01:07:30;;;;;;;3.77;3.37;;;;;;;;;;4957169;29;20447;-78
2022/05/29 01:09:59;;;;;;;4.03;3.63;;;;;;;;;;4954073;29;20957;-78
2022/05/29 01:12:32;;;;;;;4.03;3.17;;;;;;;;;;4958051;29;20918;-78
2022/05/29 01:15:02;;;;;;;4.10;3.70;;;;;;;;;;4956486;29;20466;-78
2022/05/29 01:17:33;;;;;;;3.63;3.33;;;;;;;;;;4954448;29;20573;-78
2022/05/29 01:20:08;;;;;;;4.67;3.57;;;;;;;;;;4957518;29;20514;-78
2022/05/29 01:22:41;;;;;;;4.80;3.63;;;;;;;;;;4955263;29;20454;-78
2022/05/29 01:25:35;;;;;;;4.43;4.03;;;;;;;;;;4955056;29;20447;-78
2022/05/29 01:28:14;;;;;;;5.53;3.87;;;;;;;;;;4956877;29;20509;-78
2022/05/29 01:30:44;;;;;;;4.00;3.20;;;;;;;;;;4955619;29;20477;-78
2022/05/29 01:33:15;;;;;;;4.37;3.97;;;;;;;;;;4957377;28;20978;-78
2022/05/29 01:35:46;;;;;;;4.90;4.20;;;;;;;;;;4955805;29;20776;-78
2022/05/29 01:38:15;;;;;;;3.60;3.30;;;;;;;;;;4955948;29;20447;-78
2022/05/29 01:40:43;;;;;;;4.90;3.53;;;;;;;;;;4956026;29;20445;-78
2022/05/29 01:43:11;;;;;;;5.17;3.70;;;;;;;;;;4955258;29;20451;-78
2022/05/29 01:45:54;;;;;;;4.37;3.97;;;;;;;;;;4956910;28;20661;-78
2022/05/29 01:48:22;;;;;;;3.83;3.43;;;;;;;;;;4956689;28;20437;-78
2022/05/29 01:50:51;;;;;;;3.30;3.00;;;;;;;;;;4955813;29;20549;-78
2022/05/29 01:53:21;;;;;;;5.90;3.30;;;;;;;;;;4957267;29;20782;-77
2022/05/29 01:55:51;;;;;;;3.40;3.10;;;;;;;;;;4953030;29;20444;-78
2022/05/29 01:58:19;;;;;;;4.33;2.93;;;;;;;;;;4932629;29;20468;-78
2022/05/29 02:00:48;;;;;;;3.57;3.10;;;;;;;;;;4954658;29;20541;-77
2022/05/29 02:03:17;;;;;;;3.90;2.77;;;;;;;;;;4955210;29;20457;-78
2022/05/29 02:05:46;;;;;;;5.30;3.57;;;;;;;;;;4953165;29;20482;-78
2022/05/29 02:08:14;;;;;;;3.70;3.40;;;;;;;;;;4955711;29;20490;-78
2022/05/29 02:10:44;;;;;;;4.40;3.47;;;;;;;;;;4957178;29;20494;-78
2022/05/29 02:13:12;;;;;;;3.33;3.13;;;;;;;;;;4956777;29;20457;-78
2022/05/29 02:15:42;;;;;;;4.63;3.10;;;;;;;;;;4953588;28;20482;-78
2022/05/29 02:18:12;;;;;;;3.60;3.30;;;;;;;;;;4954729;29;20467;-77
2022/05/29 02:20:42;;;;;;;3.83;3.00;;;;;;;;;;4956606;28;20511;-78
2022/05/29 02:23:10;;;;;;;4.80;3.90;;;;;;;;;;4954997;29;20469;-78
2022/05/29 02:25:38;;;;;;;3.47;3.07;;;;;;;;;;4955416;28;20514;-77
2022/05/29 02:28:10;;;;;;;4.00;3.50;;;;;;;;;;4956879;29;20439;-77
2022/05/29 02:30:39;;;;;;;4.67;3.27;;;;;;;;;;4956041;29;20443;-77
2022/05/29 02:33:08;;;;;;;5.03;3.33;;;;;;;;;;4947550;28;20510;-78
2022/05/29 02:35:39;;;;;;;3.03;2.83;;;;;;;;;;4954515;29;20518;-78
2022/05/29 02:38:07;;;;;;;5.43;2.73;;;;;;;;;;4955404;29;20456;-78
2022/05/29 02:40:39;;;;;;;3.43;3.17;;;;;;;;;;4954605;29;20486;-77
2022/05/29 02:43:09;;;;;;;4.43;3.57;;;;;;;;;;4955602;29;20554;-77
2022/05/29 02:45:38;;;;;;;3.97;3.37;;;;;;;;;;4954109;29;21042;-77
2022/05/29 02:48:08;;;;;;;3.63;3.33;;;;;;;;;;4954600;29;20431;-77
2022/05/29 02:50:40;;;;;;;3.70;3.40;;;;;;;;;;4955929;29;20526;-77
2022/05/29 02:53:09;;;;;;;4.77;3.50;;;;;;;;;;4954061;29;20462;-77
2022/05/29 02:55:36;;;;;;;3.77;3.47;;;;;;;;;;4954203;29;20538;-77
2022/05/29 02:58:06;;;;;;;3.20;2.90;;;;;;;;;;4934890;29;20500;-77
2022/05/29 03:00:37;;;;;;;3.37;3.07;;;;;;;;;;4955145;29;20859;-77
2022/05/29 03:03:08;;;;;;;3.50;3.20;;;;;;;;;;4953917;29;20458;-77
2022/05/29 03:05:36;;;;;;;3.37;3.07;;;;;;;;;;4953961;29;20475;-77
2022/05/29 03:08:11;;;;;;;4.93;3.40;;;;;;;;;;4934586;29;20455;-77
2022/05/29 03:10:40;;;;;;;3.73;3.33;;;;;;;;;;4934641;29;20447;-79
2022/05/29 03:13:08;;;;;;;4.27;3.80;;;;;;;;;;4954763;29;20463;-78
2022/05/29 03:15:39;;;;;;;3.77;3.47;;;;;;;;;;4935803;29;20441;-78
2022/05/29 03:18:10;;;;;;;4.17;3.50;;;;;;;;;;4935803;29;20463;-78
2022/05/29 03:20:42;;;;;;;3.93;3.63;;;;;;;;;;4936110;29;20633;-79
2022/05/29 03:23:14;;;;;;;4.20;3.43;;;;;;;;;;4949676;29;20937;-77
2022/05/29 03:25:42;;;;;;;4.83;3.13;;;;;;;;;;4936372;29;20577;-77
2022/05/29 03:28:12;;;;;;;5.33;3.50;;;;;;;;;;4934941;29;20440;-78
2022/05/29 03:30:39;;;;;;;3.37;3.07;;;;;;;;;;4941727;29;20829;-79
2022/05/29 03:33:09;;;;;;;3.50;3.03;;;;;;;;;;4936329;29;20477;-79
2022/05/29 03:35:36;;;;;;;4.20;3.80;;;;;;;;;;4920646;29;20496;-79
2022/05/29 03:38:04;;;;;;;4.70;4.13;;;;;;;;;;4916512;29;20474;-79
2022/05/29 03:40:33;;;;;;;4.80;3.20;;;;;;;;;;4919936;29;20452;-78
2022/05/29 03:42:59;;;;;;;3.20;2.90;;;;;;;;;;4935589;29;20440;-77
2022/05/29 03:45:26;;;;;;;4.37;3.10;;;;;;;;;;4922058;29;20496;-78
2022/05/29 03:47:53;;;;;;;3.77;3.47;;;;;;;;;;4930484;29;20471;-78
2022/05/29 03:50:20;;;;;;;3.53;3.07;;;;;;;;;;4939379;29;20947;-78
2022/05/29 03:52:47;;;;;;;3.77;3.47;;;;;;;;;;4935986;29;20926;-78
2022/05/29 03:55:14;;;;;;;4.63;3.10;;;;;;;;;;4935229;29;20519;-78
2022/05/29 03:57:42;;;;;;;5.50;4.10;;;;;;;;;;4932293;29;20484;-76
2022/05/29 04:00:10;;;;;;;4.77;4.20;;;;;;;;;;4933172;29;20578;-77
2022/05/29 04:02:40;;;;;;;3.60;3.30;;;;;;;;;;4936299;29;20829;-79
2022/05/29 04:05:07;;;;;;;5.63;3.37;;;;;;;;;;4944625;29;20471;-77
2022/05/29 04:13:03;;;;;;;7.07;3.87;;;;;;;;;;4954466;29;20423;-77
2022/05/29 04:15:30;;;;;;;4.17;3.77;;;;;;;;;;4954014;29;20448;-77
2022/05/29 04:17:56;;;;;;;5.00;3.80;;;;;;;;;;4951887;28;20458;-78
2022/05/29 04:20:23;;;;;;;4.13;3.73;;;;;;;;;;4952323;29;20823;-78
2022/05/29 04:22:50;;;;;;;4.20;3.80;;;;;;;;;;4954891;29;20713;-78
2022/05/29 04:25:16;;;;;;;4.10;3.30;;;;;;;;;;4952985;29;20455;-78
2022/05/29 04:27:43;;;;;;;4.90;4.07;;;;;;;;;;4952115;29;20489;-78
2022/05/29 04:30:12;;;;;;;4.57;3.80;;;;;;;;;;4954369;29;20857;-78
2022/05/29 04:35:22;;;;;;;4.00;3.60;;;;;;;;;;4935220;29;20427;-78
2022/05/29 04:37:49;;;;;;;4.17;3.77;;;;;;;;;;4949380;28;20542;-78
2022/05/29 04:40:16;;;;;;;6.77;4.40;;;;;;;;;;4952904;29;20503;-78
2022/05/29 04:42:43;;;;;;;4.40;4.00;;;;;;;;;;4953962;29;20454;-75
2022/05/29 04:45:11;;;;;;;4.80;3.73;;;;;;;;;;4945079;28;20456;-76
2022/05/29 04:47:37;;;;;;;4.40;4.00;;;;;;;;;;4951310;29;21029;-76
2022/05/29 04:50:05;;;;;;;4.40;4.00;;;;;;;;;;4953112;29;20454;-76
2022/05/29 04:52:31;;;;;;;4.80;4.33;;;;;;;;;;4953821;28;20467;-76
2022/05/29 04:54:58;;;;;;;3.70;3.30;;;;;;;;;;4953621;29;20921;-76
2022/05/29 04:57:24;;;;;;;4.90;4.33;;;;;;;;;;4950377;28;20503;-77
2022/05/29 04:59:50;;;;;;;4.30;3.90;;;;;;;;;;4953066;28;20475;-76
2022/05/29 05:02:18;;;;;;;4.40;3.33;;;;;;;;;;4951915;29;20533;-76
2022/05/29 05:04:45;;;;;;;4.43;3.70;;;;;;;;;;4953256;28;20478;-77
2022/05/29 05:07:11;;;;;;;5.87;4.20;;;;;;;;;;4938095;28;20484;-76
2022/05/29 05:09:38;;;;;;;5.67;3.80;;;;;;;;;;4972013;28;20430;-78
2022/05/29 05:12:05;;;;;;;4.20;3.80;;;;;;;;;;4970336;28;21103;-78
2022/05/29 05:14:31;;;;;;;5.70;4.13;;;;;;;;;;4969710;28;20447;-75
2022/05/29 05:16:58;;;;;;;4.30;3.90;;;;;;;;;;4954592;28;20462;-78
2022/05/29 05:19:26;;;;;;;3.40;3.10;;;;;;;;;;4970530;28;20505;-78
2022/05/29 05:21:52;;;;;;;4.73;3.70;;;;;;;;;;4969585;28;20553;-76
2022/05/29 05:24:19;;;;;;;4.20;3.83;;;;;;;;;;4954004;28;20442;-76
2022/05/29 05:26:46;;;;;;;3.83;3.50;;;;;;;;;;4940197;28;20465;-77
2022/05/29 05:29:14;;;;;;;6.10;5.10;;;;;;;;;;4930116;28;20509;-76
2022/05/29 05:31:40;;;;;;;5.70;4.53;;;;;;;;;;4951814;28;20471;-76
2022/05/29 05:34:07;;;;;;;4.73;4.33;;;;;;;;;;4968190;28;20449;-76
2022/05/29 05:36:35;;;;;;;5.00;4.50;;;;;;;;;;4959613;28;20481;-76
2022/05/29 05:39:01;;;;;;;5.00;4.60;;;;;;;;;;4963882;28;20466;-76
2022/05/29 05:41:28;;;;;;;5.77;4.67;;;;;;;;;;4930436;28;20464;-76
2022/05/29 05:43:54;;;;;;;4.50;4.10;;;;;;;;;;4970849;28;21000;-76
2022/05/29 05:46:21;;;;;;;4.70;4.30;;;;;;;;;;4940328;29;20448;-76
2022/05/29 05:48:48;;;;;;;5.57;5.00;;;;;;;;;;4963776;28;20442;-76
2022/05/29 05:51:14;;;;;;;6.00;4.80;;;;;;;;;;4974773;28;20506;-76
2022/05/29 05:53:42;;;;;;;6.30;4.73;;;;;;;;;;4976108;28;20769;-76
2022/05/29 05:56:10;;;;;;;8.50;4.87;;;;;;;;;;4976099;28;20443;-76
2022/05/29 05:58:37;;;;;;;5.70;5.10;;;;;;;;;;4938867;28;20458;-76
2022/05/29 06:01:04;;;;;;;5.60;5.10;;;;;;;;;;4975602;28;20476;-77
2022/05/29 06:03:31;;;;;;;5.40;4.90;;;;;;;;;;4973341;28;20472;-77
2022/05/29 06:05:58;;;;;;;7.97;4.90;;;;;;;;;;4961514;28;20477;-74
2022/05/29 06:08:24;;;;;;;5.23;4.70;;;;;;;;;;4957803;28;20454;-74
2022/05/29 06:10:52;;;;;;;5.60;5.10;;;;;;;;;;4953773;28;20491;-74
2022/05/29 06:13:19;;;;;;;5.73;5.20;;;;;;;;;;4972533;28;20457;-75
2022/05/29 06:15:46;;;;;;;7.40;5.70;;;;;;;;;;4948518;28;20431;-75
2022/05/29 06:18:12;;;;;;;5.80;5.30;;;;;;;;;;4945188;28;20438;-74
2022/05/29 06:20:39;;;;;;;4.67;4.27;;;;;;;;;;4940603;29;20526;-74
2022/05/29 06:23:06;;;;;;;4.40;4.00;;;;;;;;;;4962219;28;20543;-74
2022/05/29 06:25:32;;;;;;;4.70;4.27;;;;;;;;;;4979822;28;20450;-74
2022/05/29 06:28:01;;;;;;;5.83;4.97;;;;;;;;;;4974111;28;20449;-74
2022/05/29 06:30:28;;;;;;;4.97;4.53;;;;;;;;;;4952826;28;20469;-76
2022/05/29 06:32:55;;;;;;;4.40;3.80;;;;;;;;;;4974479;28;20496;-75
2022/05/29 06:35:21;;;;;;;4.60;3.53;;;;;;;;;;4980954;28;20443;-76
2022/05/29 06:37:48;;;;;;;4.73;3.87;;;;;;;;;;4957161;28;20942;-76
2022/05/29 06:40:16;;;;;;;3.50;3.17;;;;;;;;;;4965785;28;20474;-76
2022/05/29 06:42:44;;;;;;;4.17;3.57;;;;;;;;;;4947589;28;20766;-75
2022/05/29 06:45:12;;;;;;;4.90;3.40;;;;;;;;;;4964846;28;20557;-77
2022/05/29 06:47:39;;;;;;;5.47;3.33;;;;;;;;;;4954129;28;21009;-76
2022/05/29 06:50:06;;;;;;;5.20;3.53;;;;;;;;;;4973131;28;20473;-77
2022/05/29 06:52:33;;;;;;;4.37;3.30;;;;;;;;;;4956676;28;20444;-76
2022/05/29 06:55:00;;;;;;;4.53;3.20;;;;;;;;;;4956066;28;20763;-77
2022/05/29 06:57:37;;;;;;;3.83;3.43;;;;;;;;;;4949827;28;20455;-76
2022/05/29 07:08:20;;;;;;;4.00;3.60;;;;;;;;;;4952123;28;20450;-74
2022/05/29 07:10:46;;;;;;;3.87;3.30;;;;;;;;;;4953205;28;20798;-74
2022/05/29 07:13:13;;;;;;;5.80;4.23;;;;;;;;;;4970058;28;20956;-77
2022/05/29 07:15:39;;;;;;;3.60;3.30;;;;;;;;;;4953926;28;20960;-74
2022/05/29 07:18:08;;;;;;;3.50;3.20;;;;;;;;;;4970017;28;20457;-77
2022/05/29 07:20:35;;;;;;;3.30;3.00;;;;;;;;;;4967968;28;20512;-76
2022/05/29 07:23:01;;;;;;;4.70;3.10;;;;;;;;;;4970821;28;20538;-74
2022/05/29 07:25:28;;;;;;;5.83;3.30;;;;;;;;;;4952929;28;20454;-74
2022/05/29 07:27:54;;;;;;;3.37;3.07;;;;;;;;;;4971047;28;20474;-75
2022/05/29 07:30:21;;;;;;;5.53;2.93;;;;;;;;;;4953479;28;20442;-74
2022/05/29 07:32:47;;;;;;;3.13;2.87;;;;;;;;;;4953611;28;20458;-74
2022/05/29 07:35:16;;;;;;;3.33;2.60;;;;;;;;;;4971130;28;20442;-75
2022/05/29 07:37:43;;;;;;;4.93;3.00;;;;;;;;;;4951647;28;20507;-75
2022/05/29 07:40:10;;;;;;;4.10;3.00;;;;;;;;;;4963377;28;20486;-75
2022/05/29 07:45:21;;;;;;;3.03;2.70;;;;;;;;;;4940768;28;20533;-74
2022/05/29 07:47:47;;;;;;;4.23;2.77;;;;;;;;;;4959607;28;20457;-75
2022/05/29 07:50:16;;;;;;;4.73;2.50;;;;;;;;;;4956300;28;20470;-74
2022/05/29 07:52:44;;;;;;;3.37;2.33;;;;;;;;;;4954667;28;20454;-75
2022/05/29 07:55:11;;;;;;;5.20;2.50;;;;;;;;;;4970124;28;20455;-75
2022/05/29 07:57:38;;;;;;;3.30;2.53;;;;;;;;;;4952799;28;20486;-75
2022/05/29 08:00:05;;;;;;;5.07;3.63;;;;;;;;;;4954790;28;20466;-75
2022/05/29 08:02:38;;;;;;;3.47;2.73;;;;;;;;;;4955292;28;20565;-75
2022/05/29 08:05:05;;;;;;;3.70;2.60;;;;;;;;;;4969246;28;20486;-74
2022/05/29 08:07:32;;;;;;;4.43;2.93;;;;;;;;;;4953385;28;20525;-75
2022/05/29 08:10:01;;;;;;;3.47;2.50;;;;;;;;;;4962772;28;20954;-74
2022/05/29 08:12:27;;;;;;;3.80;2.80;;;;;;;;;;4953564;28;20494;-75
2022/05/29 08:14:54;;;;;;;2.70;2.50;;;;;;;;;;4972914;28;20453;-75
2022/05/29 08:17:20;;;;;;;4.43;2.83;;;;;;;;;;4972676;28;20824;-75
2022/05/29 08:19:47;;;;;;;3.73;2.30;;;;;;;;;;4967421;28;21204;-75
2022/05/29 08:22:13;;;;;;;5.33;2.60;;;;;;;;;;4972244;28;20451;-75
2022/05/29 08:32:58;;;;;;;3.93;3.00;;;;;;;;;;4921133;28;20442;-75
2022/05/29 08:35:24;;;;;;;3.90;3.00;;;;;;;;;;4972098;28;20471;-75
2022/05/29 08:37:51;;;;;;;4.77;2.87;;;;;;;;;;4956502;28;20438;-75
2022/05/29 08:40:18;;;;;;;3.90;2.40;;;;;;;;;;4972126;28;20482;-77
2022/05/29 08:42:46;;;;;;;2.80;2.43;;;;;;;;;;4973499;28;20513;-77
2022/05/29 08:45:14;;;;;;;3.93;2.53;;;;;;;;;;4966835;28;20502;-77
2022/05/29 08:47:45;;;;;;;4.47;2.60;;;;;;;;;;4961300;28;20462;-77
2022/05/29 08:50:16;;;;;;;4.20;2.63;;;;;;;;;;4959328;28;20443;-77
2022/05/29 08:52:48;;;;;;;5.40;2.57;;;;;;;;;;4972641;28;20422;-78
2022/05/29 08:55:16;;;;;;;4.80;3.03;;;;;;;;;;4972414;28;20418;-77
2022/05/29 08:57:54;;;;;;;4.63;2.83;;;;;;;;;;4952195;28;20459;-77
2022/05/29 09:00:23;;;;;;;4.67;3.17;;;;;;;;;;4954748;28;20474;-77
2022/05/29 09:02:55;;;;;;;3.20;2.60;;;;;;;;;;4954258;28;20860;-77
2022/05/29 09:05:28;;;;;;;4.47;2.80;;;;;;;;;;4953098;28;20584;-77
2022/05/29 09:07:56;;;;;;;4.30;2.37;;;;;;;;;;4946277;28;20505;-77
2022/05/29 09:10:26;;;;;;;4.97;2.67;;;;;;;;;;4965829;28;20481;-77
2022/05/29 09:12:55;;;;;;;3.50;2.67;;;;;;;;;;4959239;28;20509;-77
2022/05/29 09:15:24;;;;;;;3.10;2.60;;;;;;;;;;4971008;28;20442;-77
2022/05/29 09:17:52;;;;;;;6.37;3.00;;;;;;;;;;4947593;28;20477;-77
2022/05/29 09:20:26;;;;;;;3.40;2.63;;;;;;;;;;4945304;28;20746;-77
2022/05/29 09:22:55;;;;;;;3.67;2.90;;;;;;;;;;4969716;28;20461;-77
2022/05/29 09:25:25;;;;;;;5.60;2.77;;;;;;;;;;4965244;28;20453;-77
2022/05/29 09:27:52;;;;;;;4.40;2.30;;;;;;;;;;4970835;28;20454;-77
2022/05/29 09:30:20;;;;;;;3.30;2.70;;;;;;;;;;4948862;28;20538;-77
2022/05/29 09:32:49;;;;;;;3.27;2.40;;;;;;;;;;4937175;29;20483;-77
2022/05/29 09:35:18;;;;;;;3.47;3.13;;;;;;;;;;4955746;28;20456;-77
2022/05/29 09:37:50;;;;;;;4.70;3.00;;;;;;;;;;4948534;28;20458;-77
2022/05/29 09:40:20;;;;;;;10.33;3.20;;;;;;;;;;4965585;28;20472;-77
2022/05/29 09:42:48;;;;;;;4.53;3.07;;;;;;;;;;4971361;28;20948;-77
2022/05/29 09:45:23;;;;;;;6.83;3.20;;;;;;;;;;4961244;28;20454;-77
2022/05/29 09:50:46;;;;;;;4.37;2.40;;;;;;;;;;4964213;28;20507;-77
2022/05/29 09:53:18;;;;;;;4.50;2.67;;;;;;;;;;4953904;28;20445;-78
2022/05/29 09:55:52;;;;;;;3.67;2.83;;;;;;;;;;4946125;28;20446;-77
2022/05/29 09:58:22;;;;;;;5.27;3.30;;;;;;;;;;4963277;28;20462;-78
2022/05/29 10:00:53;;;;;;;6.63;3.00;;;;;;;;;;4957788;28;20524;-77
2022/05/29 10:03:33;;;;;;;4.33;2.70;;;;;;;;;;4956263;28;20482;-77
2022/05/29 10:06:08;;;;;;;4.20;3.10;;;;;;;;;;4969535;28;20534;-77
2022/05/29 10:08:34;;;;;;;6.07;3.03;;;;;;;;;;4971182;28;20457;-77
2022/05/29 10:11:12;;;;;;;6.73;2.80;;;;;;;;;;4946399;28;20443;-77
2022/05/29 10:13:42;;;;;;;5.47;3.13;;;;;;;;;;4967857;28;20507;-77
2022/05/29 10:16:10;;;;;;;3.17;2.67;;;;;;;;;;4972958;28;20725;-77
2022/05/29 10:18:38;;;;;;;3.77;3.47;;;;;;;;;;4945618;28;20458;-77
2022/05/29 10:21:07;;;;;;;4.37;2.60;;;;;;;;;;4966605;28;20526;-75
2022/05/29 10:23:36;;;;;;;4.73;2.73;;;;;;;;;;4947076;28;20555;-74
2022/05/29 10:26:05;;;;;;;6.03;4.63;;;;;;;;;;4946994;28;20455;-75
2022/05/29 10:28:32;;;;;;;7.50;2.93;;;;;;;;;;4952898;28;20458;-75
2022/05/29 10:31:00;;;;;;;8.23;3.80;;;;;;;;;;4971897;28;20845;-75
2022/05/29 10:33:28;;;;;;;5.33;2.40;;;;;;;;;;4958870;28;21035;-75
2022/05/29 10:35:59;;;;;;;2.77;1.90;;;;;;;;;;4964983;28;20474;-75
2022/05/29 10:38:27;;;;;;;3.73;2.40;;;;;;;;;;4952056;28;20478;-74
2022/05/29 10:40:55;;;;;;;3.07;2.50;;;;;;;;;;4954392;28;20853;-76
2022/05/29 10:43:34;;;;;;;4.43;2.50;;;;;;;;;;4970570;28;20506;-75
2022/05/29 10:46:04;;;;;;;2.77;2.47;;;;;;;;;;4952014;28;20570;-75
2022/05/29 10:48:45;;;;;;;4.33;3.00;;;;;;;;;;4970142;28;20857;-75
2022/05/29 10:51:18;;;;;;;3.20;2.77;;;;;;;;;;4912197;28;20480;-75
2022/05/29 10:54:01;;;;;;;6.57;3.00;;;;;;;;;;4971015;28;20470;-75
2022/05/29 10:56:31;;;;;;;4.10;3.37;;;;;;;;;;4953881;28;20450;-75
2022/05/29 10:59:08;;;;;;;3.73;2.83;;;;;;;;;;4970860;28;20449;-75
2022/05/29 11:04:36;;;;;;;5.73;3.30;;;;;;;;;;4949295;29;20487;-77
2022/05/29 11:07:11;;;;;;;3.77;3.10;;;;;;;;;;4942492;29;20466;-77
2022/05/29 11:09:44;;;;;;;4.53;2.83;;;;;;;;;;4943792;29;21021;-75
2022/05/29 11:12:15;;;;;;;6.93;2.90;;;;;;;;;;4941922;29;20795;-77
2022/05/29 11:14:48;;;;;;;4.93;3.30;;;;;;;;;;4935937;29;20471;-77
2022/05/29 11:17:22;;;;;;;3.83;2.70;;;;;;;;;;4945176;29;20561;-77
2022/05/29 11:19:56;;;;;;;7.03;2.40;;;;;;;;;;4945641;28;21079;-76
2022/05/29 11:22:26;;;;;;;2.87;2.50;;;;;;;;;;4931740;29;20500;-76
2022/05/29 11:24:59;;;;;;;3.30;2.60;;;;;;;;;;4933136;29;20456;-77
2022/05/29 11:27:38;;;;;;;4.80;2.50;;;;;;;;;;4932844;29;20448;-76
2022/05/29 11:30:08;;;;;;;4.10;3.07;;;;;;;;;;4930776;29;20507;-76
2022/05/29 11:32:45;;;;;;;3.00;2.70;;;;;;;;;;4930604;29;20475;-76
2022/05/29 11:35:27;;;;;;;5.53;2.90;;;;;;;;;;4933278;29;20471;-76
2022/05/29 11:38:15;;;;;;;3.50;2.80;;;;;;;;;;4930200;29;20547;-76
2022/05/29 11:40:45;;;;;;;3.03;2.70;;;;;;;;;;4922479;29;20472;-76
2022/05/29 11:43:18;;;;;;;3.37;2.50;;;;;;;;;;4931411;29;20585;-76
2022/05/29 11:51:26;;;;;;;3.17;2.87;;;;;;;;;;4923360;29;20433;-74
2022/05/29 11:53:57;;;;;;;3.47;2.33;;;;;;;;;;4910637;29;20467;-76
2022/05/29 11:56:30;;;;;;;3.37;3.00;;;;;;;;;;4930354;29;20450;-76
2022/05/29 11:59:00;;;;;;;3.10;2.80;;;;;;;;;;4931928;29;20432;-76
2022/05/29 12:01:28;;;;;;;2.73;2.50;;;;;;;;;;4932176;29;20559;-76
2022/05/29 12:03:58;;;;;;;3.87;3.37;;;;;;;;;;4935152;28;20499;-76
2022/05/29 12:06:28;;;;;;;5.00;3.80;;;;;;;;;;4951327;28;20489;-76
2022/05/29 12:08:58;;;;;;;3.60;3.27;;;;;;;;;;4953489;28;20847;-76
2022/05/29 12:11:31;;;;;;;5.13;3.37;;;;;;;;;;4953530;28;20493;-76
2022/05/29 12:14:01;;;;;;;3.10;2.80;;;;;;;;;;4970148;28;20447;-76
2022/05/29 12:16:29;;;;;;;3.20;2.90;;;;;;;;;;4970600;28;20440;-76
2022/05/29 12:18:57;;;;;;;5.57;3.30;;;;;;;;;;4970541;28;20457;-76
2022/05/29 12:21:27;;;;;;;3.87;3.57;;;;;;;;;;4971018;28;20825;-76
2022/05/29 12:23:55;;;;;;;5.80;3.70;;;;;;;;;;4955514;28;20845;-76
2022/05/29 12:26:23;;;;;;;3.63;3.30;;;;;;;;;;4970793;28;20454;-76
2022/05/29 12:28:52;;;;;;;5.00;3.60;;;;;;;;;;4939072;28;20450;-76
2022/05/29 12:31:22;;;;;;;3.27;2.97;;;;;;;;;;4955203;28;20537;-76
2022/05/29 12:33:48;;;;;;;3.83;2.90;;;;;;;;;;4974363;28;20457;-76
2022/05/29 12:36:20;;;;;;;3.43;3.00;;;;;;;;;;4972466;28;20530;-76
2022/05/29 12:39:01;;;;;;;2.60;2.40;;;;;;;;;;4972310;28;20453;-76
2022/05/29 12:41:32;;;;;;;4.53;3.40;;;;;;;;;;4966972;28;20471;-76
2022/05/29 12:44:13;;;;;;;2.93;2.70;;;;;;;;;;4973064;28;20542;-76
2022/05/29 12:46:55;;;;;;;3.83;2.60;;;;;;;;;;4957078;28;20446;-76
2022/05/29 12:49:32;;;;;;;3.57;2.60;;;;;;;;;;4951750;28;20459;-76
2022/05/29 12:52:19;;;;;;;3.33;3.03;;;;;;;;;;4970783;28;20870;-76
2022/05/29 12:54:58;;;;;;;4.77;2.30;;;;;;;;;;4966030;28;20820;-76
2022/05/29 12:57:41;;;;;;;4.43;3.37;;;;;;;;;;4971708;28;20431;-76
2022/05/29 13:00:32;;;;;;;3.60;3.30;;;;;;;;;;4970469;28;20445;-76
2022/05/29 13:03:17;;;;;;;3.27;2.97;;;;;;;;;;4951719;28;20458;-76
2022/05/29 13:05:55;;;;;;;2.97;2.40;;;;;;;;;;4945955;29;20483;-76
2022/05/29 13:08:30;;;;;;;3.23;2.93;;;;;;;;;;4946588;29;20541;-76
2022/05/29 13:10:58;;;;;;;7.03;2.77;;;;;;;;;;4948146;29;20458;-76
2022/05/29 13:13:30;;;;;;;2.90;2.13;;;;;;;;;;4941268;29;20444;-76
2022/05/29 13:16:17;;;;;;;3.03;2.70;;;;;;;;;;4946232;29;20850;-76
2022/05/29 13:19:21;;;;;;;2.60;2.30;;;;;;;;;;4943393;29;20798;-76
2022/05/29 13:21:55;;;;;;;4.80;3.03;;;;;;;;;;4947286;29;20506;-76
2022/05/29 13:24:34;;;;;;;2.93;2.40;;;;;;;;;;4956983;28;20562;-76
2022/05/29 13:27:19;;;;;;;2.40;1.97;;;;;;;;;;4941450;29;20443;-76
2022/05/29 13:29:53;;;;;;;3.47;2.00;;;;;;;;;;4943653;28;20527;-76
2022/05/29 13:32:21;;;;;;;1.97;1.77;;;;;;;;;;4944050;29;20443;-76
2022/05/29 13:34:50;;;;;;;1.90;1.70;;;;;;;;;;4941608;28;20429;-76
2022/05/29 13:37:23;;;;;;;5.70;1.87;;;;;;;;;;4941927;29;20509;-76
2022/05/29 13:40:04;;;;;;;2.50;1.70;;;;;;;;;;4941666;29;20806;-76
2022/05/29 13:42:37;;;;;;;1.87;1.77;;;;;;;;;;4941681;29;20472;-78
2022/05/29 13:45:43;;;;;;;2.30;1.70;;;;;;;;;;4943968;28;20819;-78
2022/05/29 13:48:16;;;;;;;3.30;2.00;;;;;;;;;;4941751;29;20986;-78
2022/05/29 13:50:48;;;;;;;1.97;1.80;;;;;;;;;;4942391;28;20448;-78
2022/05/29 13:53:24;;;;;;;2.37;2.03;;;;;;;;;;4943451;29;20470;-78
2022/05/29 13:55:55;;;;;;;2.27;2.00;;;;;;;;;;4942876;28;20439;-77
2022/05/29 14:04:03;;;;;;;1.77;1.53;;;;;;;;;;4942323;28;20440;-79
2022/05/29 14:06:33;;;;;;;2.10;1.90;;;;;;;;;;4952441;28;20435;-77
2022/05/29 14:09:07;;;;;;;2.00;1.80;;;;;;;;;;4952598;28;20516;-77
2022/05/29 14:11:48;;;;;;;2.83;1.70;;;;;;;;;;4950830;28;20438;-77
2022/05/29 14:14:34;;;;;;;2.33;1.77;;;;;;;;;;4941757;28;20479;-77
2022/05/29 14:17:09;;;;;;;3.27;2.17;;;;;;;;;;4970655;28;20446;-78
2022/05/29 14:19:50;;;;;;;3.20;1.83;;;;;;;;;;4953352;28;20831;-77
2022/05/29 14:22:29;;;;;;;2.47;2.27;;;;;;;;;;4950234;28;21050;-77
2022/05/29 14:25:16;;;;;;;2.67;2.13;;;;;;;;;;4933407;28;20450;-77
2022/05/29 14:28:04;;;;;;;1.97;1.77;;;;;;;;;;4961238;28;20451;-77
2022/05/29 14:30:45;;;;;;;4.10;1.93;;;;;;;;;;4946107;28;20440;-77
2022/05/29 14:33:21;;;;;;;3.43;1.77;;;;;;;;;;4949987;28;20819;-77
2022/05/29 14:36:11;;;;;;;2.37;2.00;;;;;;;;;;4966083;28;20446;-78
2022/05/29 14:38:57;;;;;;;2.20;2.00;;;;;;;;;;4912003;28;20497;-77
2022/05/29 14:41:27;;;;;;;2.47;2.20;;;;;;;;;;4952570;28;20466;-77
2022/05/29 14:43:54;;;;;;;3.50;2.27;;;;;;;;;;4952998;28;20502;-77
2022/05/29 14:46:29;;;;;;;3.10;2.60;;;;;;;;;;4952221;28;21029;-77
2022/05/29 14:48:58;;;;;;;4.33;2.60;;;;;;;;;;4945991;28;20450;-77
2022/05/29 14:51:28;;;;;;;2.40;2.20;;;;;;;;;;4949784;28;20495;-79
2022/05/29 14:53:57;;;;;;;2.57;2.37;;;;;;;;;;4950260;28;20467;-78
2022/05/29 14:56:31;;;;;;;3.40;3.10;;;;;;;;;;4963005;28;20445;-79
2022/05/29 14:59:14;;;;;;;2.63;2.43;;;;;;;;;;4965667;28;20832;-78
2022/05/29 15:01:41;;;;;;;4.20;2.30;;;;;;;;;;4966958;28;20471;-77
2022/05/29 15:04:08;;;;;;;4.10;2.93;;;;;;;;;;4974515;28;20444;-76
2022/05/29 15:10:30;;;;;;;2.73;2.20;;;;;;;;;;4965377;28;20507;-77
2022/05/29 15:12:20;;;;;;;3.07;2.73;;;;;;;;;;4946761;28;20446;-78
2022/05/29 15:14:46;;;;;;;2.60;1.77;;;;;;;;;;4961931;28;21023;-78
2022/05/29 15:17:20;;;;;;;2.10;1.90;;;;;;;;;;4958622;28;20426;-77
2022/05/29 15:25:20;;;;;;;3.97;2.10;;;;;;;;;;4940236;28;20664;-78
2022/05/29 15:27:48;;;;;;;1.40;1.30;;;;;;;;;;4962816;28;20534;-78
2022/05/29 15:30:17;;;;;;;2.00;1.67;;;;;;;;;;4965614;28;20996;-78
2022/05/29 15:32:47;;;;;;;1.70;1.60;;;;;;;;;;4973983;28;20438;-78
2022/05/29 15:35:19;;;;;;;1.97;1.70;;;;;;;;;;4940914;28;20957;-78
2022/05/29 15:38:03;;;;;;;1.63;1.40;;;;;;;;;;4955875;28;20952;-81
2022/05/29 15:40:50;;;;;;;1.70;1.60;;;;;;;;;;4966996;28;20431;-78
2022/05/29 15:43:24;;;;;;;2.10;1.80;;;;;;;;;;4972172;28;20478;-77
2022/05/29 15:45:59;;;;;;;2.10;1.60;;;;;;;;;;4972226;28;20526;-77
2022/05/29 15:48:33;;;;;;;2.60;2.40;;;;;;;;;;4970484;28;20454;-77
2022/05/29 15:51:03;;;;;;;4.67;3.23;;;;;;;;;;4973378;28;20462;-77
2022/05/29 15:53:40;;;;;;;3.77;1.90;;;;;;;;;;4952830;28;20509;-77
2022/05/29 15:56:12;;;;;;;2.67;2.10;;;;;;;;;;4973389;28;20914;-77